首页
METAR-TAF:

METAR-TAF

机场 :

阿道弗·苏亚雷斯马德里-巴拉哈斯机场

马德里, 西班牙

纬度: 40-27N, 经度: 003-33W, 海拔: 609米

当前天气观测

该预报发布于38分钟前的11:00 UTC
风速15节,风向,在北转西北东北之间变化
温度 16°C
湿度 45%
气压 1010 hPa
能见度10公里或以上
散云层高于6500英尺

METAR: LEMD 241100Z 36015KT 330V050 9999 SCT065 16/04 Q1010 NOSIG

时间: 12:38 (11:38 UTC)

预报

该预报发布于6小时和38分钟前的05:00 UTC
预报有效从24日的 06点(UTC)到 25日的 12点(UTC)
风速10节,风向西转西北
能见度10公里或以上
少量云层高于5000英尺
几率 30% :
短暂存在
从 24日的 06点(UTC)到 24日的 13点(UTC)
风速5节,风向多变,有时为18节阵风
短暂存在
从 24日的 06点(UTC)到 24日的 15点(UTC)
风速20节,风向北转西北,有时为30节阵风
成为
从 24日的 17点(UTC)到 24日的 19点(UTC)
风速5节,风向多变

TAF: LEMD 240500Z 2406/2512 29010KT 9999 FEW050 TX15/2415Z TN05/2406Z PROB30 TEMPO 2406/2413 VRB05G18KT TEMPO 2406/2415 34020G30KT BECMG 2417/2419 VRB05KT

超过4000个机场的气象观测和天气预报(METAR&TAF报告)。

可查询的气象台以黄色和红色小点在地图上表示。

将鼠标移到小点上方,可查看气象台名称。

然后点击查看天气观测和预报。

如需切换地图:点击带黑十字的绿色按钮放大地图;点击带横线的绿色按钮缩小地图;或者点击绿色箭头查看邻近地区的地图。


METAR-TAF: